Time;durP1;ratioP1;P1;durP2;ratioP2;P2;SDS_P1;SDS_P2;PMS_P1;PMS_P2;Temp;Humidity;BMP_temperature;BMP_pressure;BME280_temperature;BME280_humidity;BME280_pressure;Samples;Min_cycle;Max_cycle;Signal;HPM_P1;HPM_P2
2021/01/13 00:01:05;;;;;;;9.93;2.72;;;2.60;99.90;;;;;;5011799;28;20129;-60
2021/01/13 00:03:31;;;;;;;9.75;2.88;;;2.40;99.90;;;;;;5011915;28;20030;-60
2021/01/13 00:05:57;;;;;;;10.38;2.65;;;2.30;99.90;;;;;;5011837;28;20030;-57
2021/01/13 00:08:23;;;;;;;9.52;2.90;;;2.20;99.90;;;;;;5011638;28;20034;-59
2021/01/13 00:10:49;;;;;;;8.07;2.78;;;2.30;99.90;;;;;;5011679;28;20033;-59
2021/01/13 00:13:16;;;;;;;4.93;1.98;;;2.40;99.90;;;;;;5014626;28;20030;-60
2021/01/13 00:15:42;;;;;;;5.93;2.47;;;2.40;99.90;;;;;;5015358;28;20041;-59
2021/01/13 00:18:07;;;;;;;7.35;2.33;;;2.50;99.90;;;;;;5015398;28;20188;-58
2021/01/13 00:20:33;;;;;;;7.70;2.30;;;2.50;99.90;;;;;;5014832;28;20097;-59
2021/01/13 00:22:59;;;;;;;4.68;2.00;;;2.50;99.90;;;;;;5014922;28;20026;-59
2021/01/13 00:25:25;;;;;;;7.90;2.67;;;2.50;99.90;;;;;;5014943;28;20041;-58
2021/01/13 00:27:51;;;;;;;11.85;2.38;;;2.50;99.90;;;;;;5014880;28;20054;-58
2021/01/13 00:30:18;;;;;;;9.13;2.50;;;2.40;99.90;;;;;;5014877;28;20454;-58
2021/01/13 00:32:45;;;;;;;7.07;2.72;;;2.50;99.90;;;;;;5014644;28;20052;-59
2021/01/13 00:35:16;;;;;;;7.80;2.25;;;2.40;99.90;;;;;;5014470;28;20042;-59
2021/01/13 00:37:42;;;;;;;8.37;2.50;;;2.30;99.90;;;;;;5014703;28;20038;-59
2021/01/13 00:40:10;;;;;;;7.68;2.50;;;2.10;99.90;;;;;;5014547;28;20138;-59
2021/01/13 00:42:48;;;;;;;8.73;2.70;;;2.00;99.90;;;;;;5014479;28;20029;-59
2021/01/13 00:45:16;;;;;;;7.15;2.97;;;1.90;99.90;;;;;;5014916;28;20033;-60
2021/01/13 00:47:43;;;;;;;6.80;2.05;;;1.80;99.90;;;;;;5014387;28;20030;-60
2021/01/13 00:50:12;;;;;;;12.60;2.72;;;1.60;99.90;;;;;;5014571;28;20117;-60
2021/01/13 00:52:44;;;;;;;5.18;3.10;;;1.50;99.90;;;;;;5014391;28;20034;-59
2021/01/13 00:55:10;;;;;;;10.73;2.80;;;1.50;99.90;;;;;;5014474;28;20037;-60
2021/01/13 00:57:36;;;;;;;8.70;2.85;;;1.30;99.90;;;;;;5014352;28;20034;-58
2021/01/13 01:00:04;;;;;;;15.10;3.08;;;1.30;99.90;;;;;;5014666;28;20128;-59
2021/01/13 01:02:30;;;;;;;6.38;2.45;;;1.30;99.90;;;;;;5014211;28;20061;-59
2021/01/13 01:04:56;;;;;;;5.20;2.60;;;1.20;99.90;;;;;;5014490;28;20057;-59
2021/01/13 01:07:22;;;;;;;5.63;2.40;;;1.20;99.90;;;;;;5014054;28;20034;-59
2021/01/13 01:09:48;;;;;;;7.65;3.28;;;1.10;99.90;;;;;;5013983;28;20034;-58
2021/01/13 01:12:14;;;;;;;13.30;3.28;;;1.00;99.90;;;;;;5013913;28;20096;-58
2021/01/13 01:14:40;;;;;;;5.78;2.35;;;0.90;99.90;;;;;;5014168;28;20034;-58
2021/01/13 01:17:10;;;;;;;9.52;2.95;;;0.90;99.90;;;;;;5014293;28;20033;-57
2021/01/13 01:19:40;;;;;;;8.80;3.50;;;0.80;99.90;;;;;;5013989;28;20030;-57
2021/01/13 01:22:06;;;;;;;14.32;3.35;;;0.80;99.90;;;;;;5013914;28;20034;-59
2021/01/13 01:24:31;;;;;;;8.05;2.97;;;0.70;99.90;;;;;;5012822;28;20038;-60
2021/01/13 01:26:57;;;;;;;6.90;3.25;;;0.60;99.90;;;;;;5013781;28;20121;-59
2021/01/13 01:29:25;;;;;;;12.90;3.85;;;0.60;99.90;;;;;;5014084;28;20045;-59
2021/01/13 01:31:51;;;;;;;10.45;3.80;;;0.60;99.90;;;;;;5013696;28;20117;-59
2021/01/13 01:34:17;;;;;;;9.73;3.78;;;0.60;99.90;;;;;;5013506;28;20049;-59
2021/01/13 01:36:44;;;;;;;8.57;3.65;;;0.60;99.90;;;;;;5013563;28;20041;-58
2021/01/13 01:39:10;;;;;;;6.75;3.67;;;0.60;99.90;;;;;;5013815;28;20120;-59
2021/01/13 01:41:36;;;;;;;10.75;3.85;;;0.60;99.90;;;;;;5013667;28;20128;-58
2021/01/13 01:44:02;;;;;;;10.95;3.60;;;0.50;99.90;;;;;;5013617;28;20026;-60
2021/01/13 01:46:30;;;;;;;7.97;3.83;;;0.40;99.90;;;;;;5013511;28;20030;-59
2021/01/13 01:48:59;;;;;;;14.82;4.75;;;0.30;99.90;;;;;;5013476;28;20037;-56
2021/01/13 01:52:26;;;;;;;13.80;5.65;;;0.30;99.90;;;;;;5013413;28;20095;-58
2021/01/13 01:55:00;;;;;;;11.95;5.47;;;0.30;99.90;;;;;;4991244;28;20030;-60
2021/01/13 01:57:34;;;;;;;13.93;6.40;;;0.50;99.90;;;;;;4976038;28;20050;-59
2021/01/13 02:00:02;;;;;;;11.45;6.15;;;0.50;99.90;;;;;;4991378;28;20052;-59
2021/01/13 02:02:39;;;;;;;13.38;5.10;;;0.50;99.90;;;;;;4991171;28;20034;-59
2021/01/13 02:05:10;;;;;;;14.20;6.18;;;0.30;99.90;;;;;;4975507;28;20034;-60
2021/01/13 02:07:36;;;;;;;18.25;6.78;;;0.30;99.90;;;;;;4991124;28;20041;-58
2021/01/13 02:10:05;;;;;;;20.13;7.00;;;0.30;99.90;;;;;;4991048;28;20111;-58
2021/01/13 02:12:35;;;;;;;13.43;5.93;;;0.30;99.90;;;;;;4990792;28;20129;-59
2021/01/13 02:15:05;;;;;;;13.38;6.05;;;0.30;99.90;;;;;;4991017;28;20034;-58
2021/01/13 02:17:37;;;;;;;15.37;5.90;;;0.40;99.90;;;;;;4990953;28;20046;-59
2021/01/13 02:20:09;;;;;;;15.30;5.07;;;0.40;99.90;;;;;;4974860;28;20058;-59
2021/01/13 02:22:49;;;;;;;20.70;6.55;;;0.10;99.90;;;;;;4990813;28;20048;-59
2021/01/13 02:25:15;;;;;;;43.70;11.37;;;0.10;99.90;;;;;;4986191;28;20084;-60
2021/01/13 02:28:25;;;;;;;55.30;12.73;;;0.10;99.90;;;;;;5012690;28;20516;-60
2021/01/13 02:31:04;;;;;;;32.22;8.85;;;0.10;99.90;;;;;;5011857;28;20046;-60
2021/01/13 02:33:40;;;;;;;17.05;5.40;;;0.00;99.90;;;;;;5012635;28;20046;-60
2021/01/13 02:36:32;;;;;;;30.92;8.88;;;0.00;99.90;;;;;;5012490;28;20037;-59
2021/01/13 02:39:01;;;;;;;21.65;7.43;;;-0.10;99.90;;;;;;5012582;28;20045;-58
2021/01/13 02:41:35;;;;;;;14.57;5.50;;;-0.20;99.90;;;;;;5012814;28;20030;-58
2021/01/13 02:44:09;;;;;;;12.27;4.93;;;-0.30;99.90;;;;;;5011504;28;20026;-59
2021/01/13 02:46:57;;;;;;;16.80;5.93;;;-0.30;99.90;;;;;;5012737;28;20041;-59
2021/01/13 02:49:26;;;;;;;21.85;8.15;;;-0.30;99.90;;;;;;5012726;28;20121;-60
2021/01/13 02:52:00;;;;;;;25.77;9.10;;;-0.20;99.90;;;;;;5012434;28;20033;-58
2021/01/13 02:54:33;;;;;;;18.55;7.22;;;-0.20;99.90;;;;;;5012404;28;20041;-60
2021/01/13 02:57:26;;;;;;;18.30;7.00;;;-0.20;99.90;;;;;;5012679;28;20036;-58
2021/01/13 02:59:58;;;;;;;18.33;7.35;;;-0.10;99.90;;;;;;5012520;28;20030;-59
2021/01/13 03:02:39;;;;;;;19.10;6.88;;;-0.10;99.90;;;;;;5012642;28;20120;-60
2021/01/13 03:05:06;;;;;;;17.98;8.02;;;0.00;99.90;;;;;;5012357;28;20026;-60
2021/01/13 03:07:37;;;;;;;20.80;7.35;;;0.10;99.90;;;;;;5012446;28;20061;-58
2021/01/13 03:10:14;;;;;;;21.83;8.43;;;0.40;99.90;;;;;;5012254;28;20084;-59
2021/01/13 03:12:41;;;;;;;20.75;7.30;;;0.30;99.90;;;;;;5012037;28;20073;-59
2021/01/13 03:15:08;;;;;;;21.45;6.93;;;0.10;99.90;;;;;;5012238;28;20030;-57
2021/01/13 03:17:34;;;;;;;16.27;6.32;;;-0.10;99.90;;;;;;5012079;28;20065;-59
2021/01/13 03:20:19;;;;;;;13.88;6.45;;;-0.20;99.90;;;;;;5012422;28;20112;-59
2021/01/13 03:23:12;;;;;;;14.82;5.32;;;-0.20;99.90;;;;;;5011122;28;20033;-58
2021/01/13 03:25:54;;;;;;;17.60;6.10;;;-0.30;99.90;;;;;;5012097;28;20034;-58
2021/01/13 03:28:25;;;;;;;14.52;6.10;;;-0.20;99.90;;;;;;5012493;28;20104;-59
2021/01/13 03:30:53;;;;;;;10.45;5.47;;;-0.10;99.90;;;;;;5011982;28;20049;-58
2021/01/13 03:33:25;;;;;;;15.43;5.85;;;-0.20;99.90;;;;;;5012319;28;20034;-59
2021/01/13 03:36:00;;;;;;;11.57;5.35;;;-0.20;99.90;;;;;;5011838;28;20038;-58
2021/01/13 03:38:31;;;;;;;23.55;5.82;;;-0.10;99.90;;;;;;5010729;28;20034;-57
2021/01/13 03:41:04;;;;;;;14.03;5.90;;;0.00;99.90;;;;;;5011922;28;20041;-58
2021/01/13 03:43:39;;;;;;;13.07;5.07;;;0.10;99.90;;;;;;5011969;28;20030;-59
2021/01/13 03:46:08;;;;;;;13.13;4.32;;;0.10;99.90;;;;;;5012046;28;20034;-59
2021/01/13 03:48:51;;;;;;;12.48;4.60;;;0.30;99.90;;;;;;5030778;28;20057;-59
2021/01/13 03:51:25;;;;;;;15.15;5.68;;;0.30;99.90;;;;;;5015740;28;20062;-59
2021/01/13 03:53:53;;;;;;;16.52;4.82;;;0.40;99.90;;;;;;5015367;28;20128;-59
2021/01/13 03:56:28;;;;;;;12.32;4.90;;;0.50;99.90;;;;;;5015474;28;20029;-59
2021/01/13 03:58:58;;;;;;;11.95;4.43;;;0.50;99.90;;;;;;5015666;28;20043;-59
2021/01/13 04:01:24;;;;;;;15.10;6.60;;;0.40;99.90;;;;;;5014468;28;20040;-59
2021/01/13 04:04:08;;;;;;;15.07;4.05;;;0.30;99.90;;;;;;5015485;28;20030;-59
2021/01/13 04:06:43;;;;;;;11.82;4.70;;;0.40;99.90;;;;;;5015233;28;20046;-59
2021/01/13 04:09:11;;;;;;;12.18;4.07;;;0.40;99.90;;;;;;5015932;28;20025;-60
2021/01/13 04:11:38;;;;;;;9.45;4.03;;;0.40;99.90;;;;;;5015179;28;20109;-59
2021/01/13 04:14:05;;;;;;;11.35;3.42;;;0.40;99.90;;;;;;5015186;28;20030;-59
2021/01/13 04:16:38;;;;;;;7.50;3.55;;;0.40;99.90;;;;;;5015466;28;20030;-59
2021/01/13 04:19:06;;;;;;;8.18;3.63;;;0.50;99.90;;;;;;5015426;28;20030;-60
2021/01/13 04:21:33;;;;;;;11.50;3.80;;;0.50;99.90;;;;;;5015045;28;20029;-57
2021/01/13 04:24:01;;;;;;;10.85;3.80;;;0.50;99.90;;;;;;5014865;28;20040;-59
2021/01/13 04:26:29;;;;;;;8.00;3.58;;;0.40;99.90;;;;;;5014115;28;20030;-57
2021/01/13 04:28:56;;;;;;;12.40;4.40;;;0.40;99.90;;;;;;5014876;28;20080;-57
2021/01/13 04:31:24;;;;;;;11.52;4.05;;;0.30;99.90;;;;;;5015146;28;20038;-57
2021/01/13 04:33:52;;;;;;;11.40;3.55;;;0.30;99.90;;;;;;5014693;28;20049;-58
2021/01/13 04:36:19;;;;;;;14.45;4.25;;;0.30;99.90;;;;;;5014787;28;20080;-59
2021/01/13 04:38:46;;;;;;;12.18;3.70;;;0.20;99.90;;;;;;5013466;28;20246;-57
2021/01/13 04:41:20;;;;;;;7.03;3.47;;;0.10;99.90;;;;;;5012789;28;20116;-58
2021/01/13 04:43:57;;;;;;;10.68;3.67;;;0.10;99.90;;;;;;5004442;28;20034;-56
2021/01/13 04:46:39;;;;;;;11.27;3.55;;;0.20;99.90;;;;;;5014333;28;20034;-56
2021/01/13 04:49:12;;;;;;;12.50;4.32;;;0.20;99.90;;;;;;5014332;28;20026;-59
2021/01/13 04:51:46;;;;;;;12.05;3.88;;;0.10;99.90;;;;;;5013898;28;20030;-60
2021/01/13 04:54:18;;;;;;;10.77;4.18;;;0.00;99.90;;;;;;5014366;28;20034;-58
2021/01/13 04:56:44;;;;;;;10.05;4.35;;;-0.10;99.90;;;;;;5014230;28;20041;-58
2021/01/13 04:59:31;;;;;;;8.10;3.50;;;-0.10;99.90;;;;;;5014083;28;20030;-57
2021/01/13 05:02:07;;;;;;;14.82;3.85;;;-0.10;99.90;;;;;;5014393;28;20045;-58
2021/01/13 05:05:03;;;;;;;14.52;4.60;;;-0.20;99.90;;;;;;5014394;28;20026;-59
2021/01/13 05:07:36;;;;;;;9.57;3.88;;;-0.10;99.90;;;;;;5014447;28;20037;-58
2021/01/13 05:10:13;;;;;;;7.85;4.00;;;-0.10;99.90;;;;;;5014149;28;20070;-58
2021/01/13 05:12:54;;;;;;;10.30;4.38;;;-0.10;99.90;;;;;;5013997;28;20048;-59
2021/01/13 05:15:26;;;;;;;10.60;4.40;;;-0.10;99.90;;;;;;5013854;28;20038;-59
2021/01/13 05:18:11;;;;;;;14.40;4.18;;;-0.20;99.90;;;;;;5013848;28;20121;-58
2021/01/13 05:20:53;;;;;;;9.48;4.10;;;-0.20;99.90;;;;;;5014216;28;20036;-58
2021/01/13 05:23:22;;;;;;;9.93;4.93;;;-0.30;99.90;;;;;;5012999;28;20034;-56
2021/01/13 05:25:52;;;;;;;14.52;4.93;;;-0.30;99.90;;;;;;5013940;28;20080;-58
2021/01/13 05:28:20;;;;;;;10.02;4.13;;;-0.30;99.90;;;;;;5013764;28;20034;-58
2021/01/13 05:30:51;;;;;;;13.38;4.35;;;-0.20;99.90;;;;;;5013507;28;20100;-56
2021/01/13 05:33:30;;;;;;;11.85;4.65;;;-0.20;99.90;;;;;;5013505;28;20069;-58
2021/01/13 05:36:01;;;;;;;11.40;4.20;;;-0.30;99.90;;;;;;5013810;28;20054;-60
2021/01/13 05:38:57;;;;;;;9.48;3.95;;;-0.20;99.90;;;;;;5013845;28;20041;-55
2021/01/13 05:41:24;;;;;;;9.23;4.28;;;-0.20;99.90;;;;;;4963918;28;20031;-57
2021/01/13 05:43:50;;;;;;;14.00;4.40;;;-0.10;99.90;;;;;;4993939;28;20118;-55
2021/01/13 05:46:19;;;;;;;13.50;4.10;;;-0.20;99.90;;;;;;4993805;28;20065;-57
2021/01/13 05:48:53;;;;;;;13.85;4.45;;;-0.20;99.90;;;;;;4993690;28;20038;-55
2021/01/13 05:51:30;;;;;;;13.75;4.65;;;-0.30;99.90;;;;;;4993912;28;20027;-57
2021/01/13 05:53:57;;;;;;;14.48;4.65;;;-0.30;99.90;;;;;;4993940;28;20030;-57
2021/01/13 05:56:24;;;;;;;20.65;5.20;;;-0.40;99.90;;;;;;4991587;28;20030;-57
2021/01/13 05:59:04;;;;;;;15.63;5.57;;;-0.60;99.90;;;;;;4993506;28;20034;-57
2021/01/13 06:01:42;;;;;;;15.00;6.15;;;-0.70;99.90;;;;;;4993591;28;20034;-58
2021/01/13 06:04:10;;;;;;;11.23;5.95;;;-0.70;99.90;;;;;;4993739;28;20034;-56
2021/01/13 06:06:52;;;;;;;12.98;6.40;;;-0.60;99.90;;;;;;4993222;28;20117;-57
2021/01/13 06:09:22;;;;;;;11.23;5.57;;;-0.70;99.90;;;;;;4992060;28;20110;-54
2021/01/13 06:11:53;;;;;;;13.20;6.35;;;-0.80;99.90;;;;;;4993447;28;20173;-58
2021/01/13 06:14:27;;;;;;;13.70;6.13;;;-0.90;99.90;;;;;;4993576;28;20031;-57
2021/01/13 06:16:55;;;;;;;13.93;7.15;;;-1.00;99.90;;;;;;4992255;28;20034;-55
2021/01/13 06:19:21;;;;;;;16.27;6.65;;;-1.00;99.90;;;;;;4989676;28;20034;-57
2021/01/13 06:22:09;;;;;;;18.27;7.05;;;-1.10;99.90;;;;;;4992366;28;20037;-54
2021/01/13 06:24:36;;;;;;;16.73;6.70;;;-1.10;99.90;;;;;;4990675;28;20038;-55
2021/01/13 06:27:19;;;;;;;17.92;6.88;;;-1.10;99.90;;;;;;4991745;28;20035;-57
2021/01/13 06:30:03;;;;;;;16.98;7.78;;;-1.10;99.90;;;;;;4973125;28;20034;-58
2021/01/13 06:33:01;;;;;;;14.18;6.95;;;-1.00;99.90;;;;;;4973580;28;20037;-57
2021/01/13 06:35:42;;;;;;;16.45;7.22;;;-1.10;99.90;;;;;;4972999;28;20042;-59
2021/01/13 06:38:25;;;;;;;15.88;7.45;;;-1.00;99.90;;;;;;4973086;28;20046;-55
2021/01/13 06:41:11;;;;;;;15.35;7.82;;;-1.10;99.90;;;;;;4973101;28;20042;-58
2021/01/13 06:43:38;;;;;;;17.33;6.82;;;-1.10;99.90;;;;;;4991049;28;20038;-56
2021/01/13 06:46:18;;;;;;;16.77;7.43;;;-1.10;99.90;;;;;;4991466;28;20026;-58
2021/01/13 06:48:44;;;;;;;19.40;7.10;;;-1.00;99.90;;;;;;4992819;28;20061;-57
2021/01/13 06:51:18;;;;;;;15.75;6.95;;;-1.00;99.90;;;;;;4991605;28;20041;-58
2021/01/13 06:53:47;;;;;;;19.33;7.35;;;-1.00;99.90;;;;;;4993080;28;20030;-52
2021/01/13 06:56:15;;;;;;;14.00;7.15;;;-1.00;99.90;;;;;;4991231;28;20026;-55
2021/01/13 06:59:00;;;;;;;14.55;7.32;;;-1.00;99.90;;;;;;4992683;28;20089;-56
2021/01/13 07:01:27;;;;;;;20.52;6.40;;;-1.00;99.90;;;;;;4992742;28;20092;-57
2021/01/13 07:04:02;;;;;;;14.65;6.18;;;-0.90;99.90;;;;;;4992103;28;20027;-54
2021/01/13 07:06:28;;;;;;;16.20;7.50;;;-0.90;99.90;;;;;;4992444;28;20030;-56
2021/01/13 07:08:55;;;;;;;14.27;6.75;;;-1.00;99.90;;;;;;4992780;28;20109;-57
2021/01/13 07:11:21;;;;;;;13.38;6.90;;;-0.90;99.90;;;;;;4992859;28;20061;-56
2021/01/13 07:13:54;;;;;;;15.00;6.30;;;-0.80;99.90;;;;;;4992552;28;20049;-56
2021/01/13 07:16:29;;;;;;;21.23;6.38;;;-0.70;99.90;;;;;;4992508;28;20034;-57
2021/01/13 07:19:00;;;;;;;18.92;6.35;;;-0.70;99.90;;;;;;4992410;28;20034;-58
2021/01/13 07:21:40;;;;;;;14.32;6.43;;;-0.70;99.90;;;;;;4992801;28;20125;-57
2021/01/13 07:24:14;;;;;;;18.40;6.18;;;-0.60;99.90;;;;;;4996636;28;20045;-58
2021/01/13 07:26:41;;;;;;;17.85;6.55;;;-0.60;99.90;;;;;;4996638;28;20034;-57
2021/01/13 07:29:08;;;;;;;16.08;6.93;;;-0.60;99.90;;;;;;4996425;28;20058;-57
2021/01/13 07:31:35;;;;;;;14.05;7.43;;;-0.50;99.90;;;;;;4996296;28;20030;-57
2021/01/13 07:34:32;;;;;;;12.50;6.22;;;-0.50;99.90;;;;;;4996102;28;20047;-58
2021/01/13 07:37:11;;;;;;;14.93;7.53;;;-0.50;99.90;;;;;;4994370;28;20047;-57
2021/01/13 07:40:27;;;;;;;22.00;6.22;;;-0.60;99.90;;;;;;4996325;28;20038;-58
2021/01/13 07:43:12;;;;;;;15.43;6.22;;;-0.60;99.90;;;;;;4996327;28;20041;-56
2021/01/13 07:45:43;;;;;;;20.98;7.15;;;-0.60;99.90;;;;;;4995861;28;20033;-58
2021/01/13 07:48:10;;;;;;;13.93;6.20;;;-0.60;99.90;;;;;;4996012;28;20053;-58
2021/01/13 07:50:44;;;;;;;15.52;6.47;;;-0.70;99.90;;;;;;4995835;28;20030;-57
2021/01/13 07:53:29;;;;;;;17.25;7.10;;;-0.70;99.90;;;;;;4995691;28;20068;-57
2021/01/13 07:56:02;;;;;;;20.33;6.43;;;-0.60;99.90;;;;;;4994626;28;20049;-57
2021/01/13 07:58:31;;;;;;;19.00;6.85;;;-0.60;99.90;;;;;;4995831;28;20030;-58
2021/01/13 08:01:35;;;;;;;12.57;6.40;;;-0.50;99.90;;;;;;4995618;28;20046;-57
2021/01/13 08:04:52;;;;;;;20.92;7.68;;;-0.30;99.90;;;;;;4995583;28;20034;-56
2021/01/13 08:07:38;;;;;;;11.90;6.07;;;-0.20;99.90;;;;;;4994764;28;20070;-57
2021/01/13 08:10:07;;;;;;;13.55;6.68;;;-0.10;99.90;;;;;;4995799;28;20109;-55
2021/01/13 08:13:09;;;;;;;18.42;6.95;;;0.00;99.90;;;;;;4995932;28;20042;-58
2021/01/13 08:16:13;;;;;;;25.40;6.95;;;0.00;99.90;;;;;;4995565;28;20031;-57
2021/01/13 08:19:14;;;;;;;22.65;7.90;;;0.10;99.90;;;;;;4958096;28;20047;-56
2021/01/13 08:22:04;;;;;;;11.95;6.05;;;0.20;99.90;;;;;;4995452;28;20026;-58
2021/01/13 08:24:39;;;;;;;15.13;6.65;;;0.30;99.90;;;;;;4994439;28;20030;-58
2021/01/13 08:27:08;;;;;;;15.85;6.65;;;0.30;99.90;;;;;;4995575;28;20030;-58
2021/01/13 08:29:39;;;;;;;21.75;6.60;;;0.30;99.90;;;;;;4995061;28;20034;-57
2021/01/13 08:32:11;;;;;;;19.33;6.47;;;0.40;99.90;;;;;;4994704;28;20085;-57
2021/01/13 08:34:44;;;;;;;16.15;6.53;;;0.40;99.90;;;;;;4994702;28;20038;-58
2021/01/13 08:37:12;;;;;;;15.40;6.25;;;0.50;99.90;;;;;;4994903;28;20026;-54
2021/01/13 08:39:39;;;;;;;15.73;6.35;;;0.50;99.90;;;;;;4994883;28;20023;-57
2021/01/13 08:42:19;;;;;;;15.20;5.72;;;0.60;99.90;;;;;;4995208;28;20029;-60
2021/01/13 08:44:45;;;;;;;17.38;5.10;;;0.60;99.90;;;;;;4994892;28;20088;-57
2021/01/13 08:47:11;;;;;;;14.80;5.55;;;0.60;99.90;;;;;;4994878;28;20032;-56
2021/01/13 08:49:37;;;;;;;17.15;5.50;;;0.70;99.90;;;;;;4994834;28;20037;-57
2021/01/13 08:52:21;;;;;;;16.75;6.03;;;0.70;99.90;;;;;;4994690;28;20034;-55
2021/01/13 08:54:56;;;;;;;10.35;5.30;;;0.70;99.90;;;;;;4995255;28;20034;-56
2021/01/13 08:57:24;;;;;;;18.40;5.63;;;0.80;99.90;;;;;;4994997;28;20038;-58
2021/01/13 08:59:52;;;;;;;16.23;5.57;;;0.80;99.90;;;;;;4994903;28;20033;-57
2021/01/13 09:02:20;;;;;;;8.63;4.72;;;0.80;99.90;;;;;;4994819;28;20081;-56
2021/01/13 09:04:53;;;;;;;14.50;5.30;;;0.80;99.90;;;;;;4994960;28;20045;-56
2021/01/13 09:07:21;;;;;;;17.77;5.10;;;0.90;99.90;;;;;;4994424;28;20066;-57
2021/01/13 09:09:56;;;;;;;12.52;5.03;;;1.00;99.90;;;;;;4994655;28;20038;-58
2021/01/13 09:12:44;;;;;;;12.73;5.90;;;1.10;99.90;;;;;;4994378;28;20069;-57
2021/01/13 09:15:16;;;;;;;13.18;5.30;;;1.10;99.90;;;;;;4994603;28;20026;-58
2021/01/13 09:17:58;;;;;;;16.55;5.03;;;1.10;99.90;;;;;;4994645;28;20056;-55
2021/01/13 09:20:33;;;;;;;17.70;5.65;;;1.10;99.90;;;;;;4994621;28;20125;-55
2021/01/13 09:23:02;;;;;;;12.43;5.32;;;1.20;99.90;;;;;;4994563;28;20129;-58
2021/01/13 09:25:45;;;;;;;11.32;6.05;;;1.30;99.90;;;;;;4994350;28;20034;-59
2021/01/13 09:28:17;;;;;;;13.20;5.18;;;1.50;99.90;;;;;;4994039;28;20122;-56
2021/01/13 09:30:44;;;;;;;14.07;4.55;;;1.70;99.90;;;;;;4994339;28;20030;-57
2021/01/13 09:33:14;;;;;;;12.57;4.82;;;1.80;99.90;;;;;;4994139;28;20026;-54
2021/01/13 09:35:41;;;;;;;9.45;5.15;;;1.90;99.90;;;;;;4993955;28;20046;-51
2021/01/13 09:38:12;;;;;;;14.45;5.00;;;2.00;99.90;;;;;;4994106;28;20034;-56
2021/01/13 09:41:03;;;;;;;9.65;4.15;;;2.20;99.90;;;;;;4994072;28;20085;-54
2021/01/13 09:43:47;;;;;;;11.98;4.57;;;2.30;99.90;;;;;;4994178;28;20100;-57
2021/01/13 09:46:22;;;;;;;13.18;4.00;;;2.40;99.90;;;;;;4972665;28;20027;-57
2021/01/13 09:49:08;;;;;;;7.95;3.70;;;2.50;99.90;;;;;;4974607;28;20110;-54
2021/01/13 09:51:38;;;;;;;10.30;4.25;;;2.60;99.90;;;;;;4974378;28;20050;-57
2021/01/13 09:54:07;;;;;;;7.90;3.85;;;2.70;99.90;;;;;;4974555;28;20041;-57
2021/01/13 09:56:36;;;;;;;10.20;3.80;;;2.80;99.90;;;;;;4974557;28;20118;-58
2021/01/13 09:59:08;;;;;;;10.93;4.93;;;2.90;99.90;;;;;;4973143;28;20070;-55
2021/01/13 10:01:38;;;;;;;7.93;3.58;;;3.00;99.90;;;;;;4974390;28;20038;-56
2021/01/13 10:04:12;;;;;;;6.18;3.25;;;3.50;99.90;;;;;;4974289;28;20041;-51
2021/01/13 10:06:41;;;;;;;12.73;3.90;;;4.70;99.90;;;;;;4981074;28;20030;-58
2021/01/13 10:09:14;;;;;;;6.13;3.08;;;6.50;99.90;;;;;;4992591;28;20029;-54
2021/01/13 10:11:40;;;;;;;11.18;3.47;;;7.90;99.90;;;;;;4992762;28;20030;-58
2021/01/13 10:14:10;;;;;;;8.02;3.63;;;9.40;99.90;;;;;;4992991;28;20026;-59
2021/01/13 10:16:44;;;;;;;10.98;3.60;;;9.90;99.90;;;;;;4992754;28;20084;-56
2021/01/13 10:19:11;;;;;;;13.18;3.25;;;10.80;97.10;;;;;;4988790;28;20065;-57
2021/01/13 10:21:44;;;;;;;10.93;3.80;;;10.60;96.10;;;;;;4992916;28;20038;-58
2021/01/13 10:24:18;;;;;;;8.02;2.63;;;11.50;95.50;;;;;;4993324;28;20022;-58
2021/01/13 10:26:48;;;;;;;8.88;3.00;;;11.80;92.50;;;;;;4993418;28;20038;-55
2021/01/13 10:29:21;;;;;;;6.53;2.75;;;11.40;93.60;;;;;;4993219;28;20033;-55
2021/01/13 10:31:48;;;;;;;6.75;2.78;;;11.60;93.70;;;;;;4993250;28;20038;-56
2021/01/13 10:34:15;;;;;;;10.70;2.83;;;12.10;92.20;;;;;;4992418;28;20046;-57
2021/01/13 10:36:49;;;;;;;6.35;2.83;;;12.10;91.80;;;;;;4992454;28;20045;-56
2021/01/13 10:39:24;;;;;;;8.98;2.80;;;11.60;93.30;;;;;;4991597;28;20034;-56
2021/01/13 10:41:53;;;;;;;8.85;2.85;;;12.60;91.80;;;;;;4992684;28;20065;-56
2021/01/13 10:44:29;;;;;;;6.15;2.63;;;11.90;91.20;;;;;;4992410;28;20030;-57
2021/01/13 10:47:04;;;;;;;5.40;2.65;;;12.10;91.70;;;;;;4992738;28;20081;-57
2021/01/13 10:49:41;;;;;;;6.13;2.47;;;12.20;90.80;;;;;;4992679;28;20045;-58
2021/01/13 10:52:21;;;;;;;7.22;2.72;;;10.40;94.60;;;;;;4992801;28;20038;-58
2021/01/13 10:54:50;;;;;;;10.10;3.20;;;9.60;96.80;;;;;;4993113;28;20076;-57
2021/01/13 10:57:29;;;;;;;10.55;2.30;;;10.20;96.80;;;;;;4992364;28;20037;-58
2021/01/13 11:00:11;;;;;;;9.57;2.55;;;10.00;95.70;;;;;;4976083;28;20120;-57
2021/01/13 11:02:38;;;;;;;7.43;2.22;;;8.90;98.60;;;;;;4992699;28;20034;-57
2021/01/13 11:05:05;;;;;;;12.70;2.75;;;8.00;99.90;;;;;;4992697;28;20107;-57
2021/01/13 11:07:43;;;;;;;7.65;2.60;;;7.50;99.90;;;;;;4992911;28;20030;-60
2021/01/13 11:10:11;;;;;;;7.18;2.47;;;7.10;99.90;;;;;;5007575;28;20030;-58
2021/01/13 11:12:38;;;;;;;7.57;2.60;;;6.50;99.90;;;;;;4992789;28;20039;-59
2021/01/13 11:15:07;;;;;;;6.43;2.33;;;6.10;99.90;;;;;;4992641;28;20058;-59
2021/01/13 11:17:33;;;;;;;6.45;1.85;;;5.90;99.90;;;;;;5007875;28;20088;-59
2021/01/13 11:20:02;;;;;;;9.43;2.35;;;5.70;99.90;;;;;;4992279;28;20035;-59
2021/01/13 11:22:45;;;;;;;7.53;2.60;;;5.60;99.90;;;;;;4992584;28;20046;-56
2021/01/13 11:25:36;;;;;;;12.57;3.70;;;5.20;99.90;;;;;;4992513;28;20035;-58
2021/01/13 11:28:08;;;;;;;7.90;2.13;;;5.20;99.90;;;;;;4992512;28;20031;-57
2021/01/13 11:30:37;;;;;;;10.27;2.55;;;5.00;99.90;;;;;;4992274;28;20126;-59
2021/01/13 11:33:07;;;;;;;5.72;2.17;;;5.00;99.90;;;;;;4992380;28;20034;-57
2021/01/13 11:35:39;;;;;;;7.18;2.00;;;5.10;99.90;;;;;;4992281;28;20096;-59
2021/01/13 11:38:33;;;;;;;10.20;2.28;;;5.20;99.90;;;;;;4992616;28;20033;-56
2021/01/13 11:41:32;;;;;;;10.88;2.65;;;5.20;99.90;;;;;;4992223;28;20037;-57
2021/01/13 11:44:24;;;;;;;9.32;2.35;;;5.20;99.90;;;;;;4992548;28;20031;-56
2021/01/13 11:46:56;;;;;;;10.10;2.35;;;5.10;99.90;;;;;;4991949;28;20038;-56
2021/01/13 11:49:26;;;;;;;16.90;2.80;;;4.90;99.90;;;;;;4992242;28;20030;-54
2021/01/13 11:51:55;;;;;;;9.43;2.30;;;4.80;99.90;;;;;;4991253;28;20046;-56
2021/01/13 11:54:30;;;;;;;5.20;1.85;;;4.80;99.90;;;;;;4992015;28;20039;-57
2021/01/13 11:57:20;;;;;;;7.05;1.95;;;4.80;99.90;;;;;;4992538;28;20058;-57
2021/01/13 11:59:47;;;;;;;8.43;1.80;;;4.80;99.90;;;;;;4992145;28;20026;-57
2021/01/13 12:02:31;;;;;;;5.75;1.77;;;4.70;99.90;;;;;;4990812;28;20042;-56
2021/01/13 12:04:57;;;;;;;5.78;1.55;;;4.80;99.90;;;;;;4992330;28;20103;-54
2021/01/13 12:07:23;;;;;;;7.20;2.80;;;4.80;99.90;;;;;;4992105;28;20065;-57
2021/01/13 12:10:13;;;;;;;6.78;1.98;;;5.10;99.90;;;;;;4995832;28;20057;-56
2021/01/13 12:12:40;;;;;;;8.10;2.35;;;5.30;99.90;;;;;;4994623;28;20030;-57
2021/01/13 12:15:08;;;;;;;5.88;1.73;;;5.40;99.90;;;;;;4995809;28;20026;-56
2021/01/13 12:17:49;;;;;;;5.90;1.60;;;5.40;99.90;;;;;;4995584;28;20038;-54
2021/01/13 12:20:32;;;;;;;5.70;2.30;;;5.40;99.90;;;;;;4995443;28;20031;-53
2021/01/13 12:22:58;;;;;;;15.95;5.05;;;5.40;99.90;;;;;;4995567;28;20030;-56
2021/01/13 12:25:25;;;;;;;5.95;1.85;;;5.40;99.90;;;;;;4995472;28;20130;-54
2021/01/13 12:28:07;;;;;;;9.82;2.38;;;5.30;99.90;;;;;;4995681;28;20030;-57
2021/01/13 12:30:34;;;;;;;4.72;1.52;;;5.20;99.90;;;;;;4995606;28;20477;-55
2021/01/13 12:33:05;;;;;;;9.98;2.38;;;5.20;99.90;;;;;;4995137;28;20117;-55
2021/01/13 12:35:31;;;;;;;5.00;2.15;;;5.30;99.90;;;;;;4994595;28;20042;-56
2021/01/13 12:37:57;;;;;;;5.40;1.50;;;5.20;99.90;;;;;;4995010;28;20069;-57
2021/01/13 12:40:32;;;;;;;8.18;1.83;;;5.10;99.90;;;;;;4995038;28;20112;-53
2021/01/13 12:43:19;;;;;;;7.50;1.88;;;5.10;99.90;;;;;;4995058;28;20034;-55
2021/01/13 12:45:46;;;;;;;5.25;1.48;;;5.10;99.90;;;;;;4994849;28;20033;-56
2021/01/13 12:48:13;;;;;;;9.23;1.88;;;5.00;99.90;;;;;;4995046;28;20027;-57
2021/01/13 12:50:41;;;;;;;8.68;1.80;;;5.00;99.90;;;;;;4994929;28;20038;-57
2021/01/13 12:53:07;;;;;;;7.05;1.75;;;4.90;99.90;;;;;;4994894;28;20129;-55
2021/01/13 12:55:33;;;;;;;5.13;1.67;;;5.00;99.90;;;;;;4994665;28;20101;-55
2021/01/13 12:57:59;;;;;;;8.52;2.28;;;5.10;99.90;;;;;;5008960;28;20042;-56
2021/01/13 13:00:26;;;;;;;8.45;2.30;;;5.10;99.90;;;;;;4994599;28;20042;-56
2021/01/13 13:02:53;;;;;;;4.68;1.40;;;5.20;99.90;;;;;;4994590;28;20069;-54
2021/01/13 13:05:19;;;;;;;3.90;1.73;;;5.10;99.90;;;;;;4994812;28;20026;-57
2021/01/13 13:07:45;;;;;;;5.22;1.50;;;5.10;99.90;;;;;;4994723;28;20038;-57
2021/01/13 13:10:12;;;;;;;6.20;1.15;;;5.00;99.90;;;;;;4994877;28;20030;-54
2021/01/13 13:12:38;;;;;;;8.70;1.58;;;4.90;99.90;;;;;;4994562;28;20048;-56
2021/01/13 13:15:06;;;;;;;4.63;1.83;;;4.90;99.90;;;;;;4994722;28;20030;-54
2021/01/13 13:17:32;;;;;;;7.85;1.33;;;4.90;99.90;;;;;;4994193;28;20038;-56
2021/01/13 13:19:58;;;;;;;3.50;1.00;;;4.90;99.90;;;;;;4993349;28;20046;-57